createdAt,value
2023-01-19T00:00:27.149Z,8.57
2023-01-19T00:03:51.002Z,9.23
2023-01-19T00:07:16.914Z,9.37
2023-01-19T00:10:43.056Z,7.30
2023-01-19T00:14:07.015Z,8.30
2023-01-19T00:17:31.263Z,9.30
2023-01-19T00:20:55.010Z,9.60
2023-01-19T00:24:20.598Z,9.37
2023-01-19T00:27:49.448Z,9.20
2023-01-19T00:31:13.616Z,8.83
2023-01-19T00:34:39.557Z,9.70
2023-01-19T00:38:04.568Z,9.27
2023-01-19T00:41:44.335Z,9.37
2023-01-19T00:45:09.392Z,8.77
2023-01-19T00:48:35.460Z,10.20
2023-01-19T00:51:58.982Z,10.90
2023-01-19T00:55:23.095Z,10.67
2023-01-19T00:58:50.896Z,10.60
2023-01-19T01:02:15.915Z,8.80
2023-01-19T01:05:42.239Z,9.30
2023-01-19T01:09:11.790Z,11.33
2023-01-19T01:12:36.501Z,9.53
2023-01-19T01:16:01.500Z,9.93
2023-01-19T01:19:26.072Z,9.23
2023-01-19T01:22:52.895Z,10.73
2023-01-19T01:26:19.913Z,10.73
2023-01-19T01:29:46.903Z,11.67
2023-01-19T01:33:14.879Z,9.73
2023-01-19T01:36:39.136Z,9.73
2023-01-19T01:40:03.167Z,8.80
2023-01-19T01:43:48.232Z,10.47
2023-01-19T01:47:12.208Z,9.17
2023-01-19T01:51:03.379Z,12.30
2023-01-19T01:54:29.205Z,11.27
2023-01-19T01:58:00.267Z,9.23
2023-01-19T02:01:41.437Z,9.80
2023-01-19T02:05:08.930Z,11.10
2023-01-19T02:08:56.418Z,11.83
2023-01-19T02:12:37.812Z,10.57
2023-01-19T02:16:04.541Z,11.00
2023-01-19T02:19:34.587Z,10.97
2023-01-19T02:23:04.550Z,10.70
2023-01-19T02:26:32.416Z,12.50
2023-01-19T02:29:56.402Z,9.73
2023-01-19T02:33:20.183Z,9.37
2023-01-19T02:36:55.134Z,11.57
2023-01-19T02:40:24.859Z,10.63
2023-01-19T02:43:52.036Z,10.00
2023-01-19T02:47:16.425Z,8.90
2023-01-19T02:50:43.617Z,11.63
2023-01-19T02:54:31.639Z,7.00
2023-01-19T02:58:07.462Z,11.10
2023-01-19T03:01:49.683Z,10.90
2023-01-19T03:05:27.763Z,8.13
2023-01-19T03:09:03.956Z,10.93
2023-01-19T03:12:37.845Z,9.63
2023-01-19T03:16:12.609Z,11.00
2023-01-19T03:19:42.666Z,11.77
2023-01-19T03:23:10.726Z,11.03
2023-01-19T03:26:39.977Z,8.40
2023-01-19T03:30:10.344Z,10.37
2023-01-19T03:33:38.349Z,9.23
2023-01-19T03:37:06.105Z,10.03
2023-01-19T03:40:33.078Z,10.37
2023-01-19T03:43:58.858Z,10.37
2023-01-19T03:47:23.733Z,11.30
2023-01-19T03:50:47.455Z,11.43
2023-01-19T03:54:12.941Z,10.57
2023-01-19T03:57:37.972Z,11.10
2023-01-19T04:01:04.510Z,10.63
2023-01-19T04:04:30.312Z,13.17
2023-01-19T04:07:54.889Z,10.60
2023-01-19T04:11:20.837Z,9.67
2023-01-19T04:14:45.293Z,10.80
2023-01-19T04:18:10.119Z,9.30
2023-01-19T04:21:34.921Z,12.13
2023-01-19T04:25:01.688Z,10.23
2023-01-19T04:28:28.524Z,10.67
2023-01-19T04:31:52.434Z,11.53
2023-01-19T04:35:16.909Z,10.40
2023-01-19T04:38:41.367Z,10.43
2023-01-19T04:42:06.304Z,10.70
2023-01-19T04:45:31.772Z,9.97
2023-01-19T04:48:55.554Z,8.77
2023-01-19T04:52:19.541Z,7.40
2023-01-19T04:55:45.768Z,10.30
2023-01-19T04:59:10.344Z,9.10
2023-01-19T05:02:38.931Z,8.57
2023-01-19T05:06:03.463Z,10.57
2023-01-19T05:09:27.772Z,10.00
2023-01-19T05:12:52.288Z,10.77
2023-01-19T05:16:16.604Z,9.83
2023-01-19T05:19:41.656Z,10.40
2023-01-19T05:23:05.259Z,8.80
2023-01-19T05:26:29.369Z,8.73
2023-01-19T05:29:53.287Z,8.37
2023-01-19T05:33:17.379Z,8.60
2023-01-19T05:36:47.752Z,9.20
2023-01-19T05:40:12.135Z,9.10
2023-01-19T05:43:36.389Z,9.07
2023-01-19T05:47:00.470Z,8.57
2023-01-19T05:50:26.918Z,8.67
2023-01-19T05:53:52.755Z,10.10
2023-01-19T05:57:17.453Z,8.17
2023-01-19T06:00:41.468Z,9.80
2023-01-19T06:04:05.776Z,8.30
2023-01-19T06:07:32.113Z,8.37
2023-01-19T06:10:57.119Z,8.90
2023-01-19T06:14:21.452Z,7.07
2023-01-19T06:17:45.492Z,7.30
2023-01-19T06:21:12.999Z,7.10
2023-01-19T06:24:36.689Z,7.37
2023-01-19T06:28:01.704Z,7.90
2023-01-19T06:31:25.481Z,9.23
2023-01-19T06:34:49.186Z,6.47
2023-01-19T06:38:14.323Z,7.53
2023-01-19T06:41:38.602Z,9.23
2023-01-19T06:45:03.774Z,8.40
2023-01-19T06:48:27.624Z,8.13
2023-01-19T06:51:51.340Z,7.67
2023-01-19T06:55:16.214Z,6.17
2023-01-19T06:58:40.254Z,7.80
2023-01-19T07:02:27.996Z,7.20
2023-01-19T07:05:55.062Z,8.87
2023-01-19T07:09:20.368Z,8.60
2023-01-19T07:12:46.430Z,5.50
2023-01-19T07:16:13.391Z,7.97
2023-01-19T07:19:38.377Z,8.13
2023-01-19T07:23:03.092Z,8.03
2023-01-19T07:26:27.880Z,9.10
2023-01-19T07:29:51.473Z,8.40
2023-01-19T07:33:15.270Z,8.47
2023-01-19T07:36:40.303Z,8.20
2023-01-19T07:40:04.609Z,8.53
2023-01-19T07:43:28.340Z,8.70
2023-01-19T07:46:52.165Z,8.97
2023-01-19T07:50:21.127Z,7.70
2023-01-19T07:53:46.826Z,6.90
2023-01-19T07:57:10.732Z,7.50
2023-01-19T08:00:35.334Z,5.47
2023-01-19T08:03:59.301Z,8.27
2023-01-19T08:07:22.912Z,8.77
2023-01-19T08:10:51.175Z,7.33
2023-01-19T08:14:15.079Z,7.63
2023-01-19T08:17:39.167Z,7.03
2023-01-19T08:21:03.041Z,7.20
2023-01-19T08:24:28.643Z,8.50
2023-01-19T08:27:57.233Z,7.77
2023-01-19T08:31:24.691Z,8.73
2023-01-19T08:34:49.419Z,7.10
2023-01-19T08:38:13.370Z,8.90
2023-01-19T08:41:36.999Z,6.90
2023-01-19T08:45:02.081Z,7.40
2023-01-19T08:48:25.963Z,8.73
2023-01-19T08:51:49.635Z,7.57
2023-01-19T08:55:13.426Z,7.20
2023-01-19T08:58:37.478Z,7.60
2023-01-19T09:02:02.937Z,7.93
2023-01-19T09:05:27.950Z,7.83
2023-01-19T09:08:51.803Z,8.30
2023-01-19T09:12:15.784Z,7.80
2023-01-19T09:15:40.197Z,8.50
2023-01-19T09:19:08.479Z,8.50
2023-01-19T09:22:32.790Z,8.20
2023-01-19T09:25:59.336Z,6.67
2023-01-19T09:29:22.983Z,7.53
2023-01-19T09:32:46.941Z,7.53
2023-01-19T09:36:11.954Z,5.83
2023-01-19T09:39:36.073Z,7.83
2023-01-19T09:43:14.082Z,8.40
2023-01-19T09:46:40.378Z,6.53
2023-01-19T09:50:08.469Z,8.37
2023-01-19T09:53:45.352Z,8.17
2023-01-19T09:57:11.967Z,8.13
2023-01-19T10:00:36.868Z,8.60
2023-01-19T10:04:30.206Z,9.83
2023-01-19T10:08:12.988Z,8.97
2023-01-19T10:11:52.721Z,9.77
2023-01-19T10:15:25.216Z,10.60
2023-01-19T10:18:51.644Z,6.20
2023-01-19T10:22:21.985Z,5.50
2023-01-19T10:25:46.293Z,5.13
2023-01-19T10:29:19.568Z,5.67
2023-01-19T10:32:44.439Z,5.73
2023-01-19T10:36:18.355Z,5.77
2023-01-19T10:39:43.140Z,4.93
2023-01-19T10:43:37.118Z,6.03
2023-01-19T10:47:03.134Z,5.80
2023-01-19T10:50:30.709Z,5.23
2023-01-19T10:54:00.960Z,5.70
2023-01-19T10:57:30.474Z,5.83
2023-01-19T11:00:54.525Z,5.50
2023-01-19T11:04:29.603Z,5.30
2023-01-19T11:07:53.479Z,4.67
2023-01-19T11:11:17.183Z,5.13
2023-01-19T11:14:40.806Z,6.53
2023-01-19T11:18:07.638Z,6.57
2023-01-19T11:21:33.994Z,7.50
2023-01-19T11:25:03.185Z,8.03
2023-01-19T11:28:30.951Z,7.77
2023-01-19T11:31:57.597Z,9.30
2023-01-19T11:35:37.631Z,9.20
2023-01-19T11:39:23.559Z,8.83
2023-01-19T11:42:47.445Z,8.13
2023-01-19T11:46:13.441Z,10.23
2023-01-19T11:49:43.397Z,9.30
2023-01-19T11:53:12.195Z,9.60
2023-01-19T11:56:37.467Z,10.97
2023-01-19T12:00:05.147Z,8.77
2023-01-19T12:03:33.963Z,10.03
2023-01-19T12:07:00.166Z,10.20
2023-01-19T12:10:28.027Z,9.17
2023-01-19T12:13:53.979Z,7.70
2023-01-19T12:17:25.969Z,7.47
2023-01-19T12:20:52.387Z,8.30
2023-01-19T12:24:19.058Z,8.60
2023-01-19T12:27:45.127Z,7.30
2023-01-19T12:31:10.970Z,6.80
2023-01-19T12:34:43.190Z,9.10
2023-01-19T12:38:39.062Z,9.40
2023-01-19T12:42:12.556Z,9.00
2023-01-19T12:45:39.708Z,8.87
2023-01-19T12:49:10.357Z,7.97
2023-01-19T12:52:35.847Z,8.90
2023-01-19T12:56:00.998Z,8.20
2023-01-19T12:59:27.777Z,8.80
2023-01-19T13:02:53.011Z,9.50
2023-01-19T13:06:17.980Z,10.50
2023-01-19T13:09:43.075Z,10.67
2023-01-19T13:13:19.482Z,9.83
2023-01-19T13:17:15.926Z,9.30
2023-01-19T13:20:47.677Z,11.00
2023-01-19T13:24:14.935Z,12.00
2023-01-19T13:27:40.647Z,11.80
2023-01-19T13:31:05.089Z,10.77
2023-01-19T13:34:29.931Z,11.37
2023-01-19T13:37:53.801Z,10.90
2023-01-19T13:41:23.301Z,12.80
2023-01-19T13:44:53.305Z,12.60
2023-01-19T13:48:19.237Z,12.20
2023-01-19T13:51:42.831Z,11.80
2023-01-19T13:55:09.388Z,12.13
2023-01-19T13:58:34.681Z,12.90
2023-01-19T14:02:12.864Z,14.47
2023-01-19T14:05:38.010Z,11.90
2023-01-19T14:09:17.721Z,13.30
2023-01-19T14:12:54.532Z,12.13
2023-01-19T14:16:29.005Z,10.77
2023-01-19T14:19:54.276Z,13.33
2023-01-19T14:23:40.363Z,12.30
2023-01-19T14:27:20.451Z,13.57
2023-01-19T14:30:54.736Z,11.33
2023-01-19T14:34:38.759Z,13.50
2023-01-19T14:38:02.563Z,11.80
2023-01-19T14:41:31.413Z,12.00
2023-01-19T14:44:57.114Z,12.17
2023-01-19T14:48:22.599Z,20.00
2023-01-19T14:51:49.446Z,18.50
2023-01-19T14:55:21.610Z,12.27
2023-01-19T14:58:48.837Z,22.57
2023-01-19T15:02:12.991Z,12.60
2023-01-19T15:05:38.697Z,18.63
2023-01-19T15:09:06.502Z,12.73
2023-01-19T15:12:30.739Z,14.67
2023-01-19T15:15:54.769Z,12.27
2023-01-19T15:19:20.029Z,13.00
2023-01-19T15:22:44.493Z,12.80
2023-01-19T15:26:17.072Z,22.57
2023-01-19T15:29:41.211Z,15.00
2023-01-19T15:33:05.219Z,17.30
2023-01-19T15:36:29.070Z,17.07
2023-01-19T15:39:52.865Z,20.93
2023-01-19T15:43:33.364Z,16.77
2023-01-19T15:46:57.903Z,21.43
2023-01-19T15:50:21.674Z,12.53
2023-01-19T15:53:46.354Z,19.03
2023-01-19T15:57:10.740Z,15.60
2023-01-19T16:00:36.558Z,12.33
2023-01-19T16:04:01.853Z,12.30
2023-01-19T16:07:28.185Z,15.13
2023-01-19T16:10:52.034Z,14.97
2023-01-19T16:14:17.489Z,17.37
2023-01-19T16:17:42.755Z,17.30
2023-01-19T16:21:06.718Z,18.80
2023-01-19T16:24:30.600Z,19.10
2023-01-19T16:27:54.219Z,18.10
2023-01-19T16:31:17.872Z,18.10
2023-01-19T16:34:43.014Z,19.97
2023-01-19T16:38:07.430Z,18.77
2023-01-19T16:41:31.041Z,20.20
2023-01-19T16:44:54.799Z,18.83
2023-01-19T16:48:18.325Z,20.53
2023-01-19T16:51:44.148Z,19.80
2023-01-19T16:55:11.116Z,25.10
2023-01-19T16:58:37.373Z,22.07
2023-01-19T17:02:01.343Z,17.10
2023-01-19T17:05:25.160Z,21.60
2023-01-19T17:08:51.478Z,21.13
2023-01-19T17:12:15.036Z,22.30
2023-01-19T17:15:38.756Z,22.87
2023-01-19T17:19:04.485Z,25.10
2023-01-19T17:22:28.205Z,91.33
2023-01-19T17:25:57.058Z,30.20
2023-01-19T17:29:20.801Z,23.97
2023-01-19T17:32:44.456Z,24.00
2023-01-19T17:36:10.412Z,25.40
2023-01-19T17:39:36.922Z,26.93
2023-01-19T17:43:01.899Z,40.23
2023-01-19T17:46:27.609Z,28.13
2023-01-19T17:49:51.408Z,35.80
2023-01-19T17:53:15.206Z,26.40
2023-01-19T17:56:41.221Z,25.37
2023-01-19T18:00:08.502Z,23.77
2023-01-19T18:03:38.065Z,25.77
2023-01-19T18:07:01.671Z,27.60
2023-01-19T18:10:25.266Z,25.57
2023-01-19T18:13:50.522Z,24.37
2023-01-19T18:17:15.475Z,34.73
2023-01-19T18:20:39.987Z,25.30
2023-01-19T18:24:05.244Z,27.03
2023-01-19T18:27:30.146Z,24.23
2023-01-19T18:30:54.305Z,23.30
2023-01-19T18:34:19.542Z,25.20
2023-01-19T18:37:43.436Z,23.60
2023-01-19T18:41:09.970Z,24.13
2023-01-19T18:44:34.340Z,27.57
2023-01-19T18:48:00.124Z,25.10
2023-01-19T18:51:25.192Z,21.50
2023-01-19T18:54:49.313Z,22.07
2023-01-19T18:58:13.257Z,30.03
2023-01-19T19:01:37.058Z,21.03
2023-01-19T19:05:04.926Z,25.53
2023-01-19T19:08:34.787Z,25.10
2023-01-19T19:11:58.948Z,23.37
2023-01-19T19:15:22.876Z,23.63
2023-01-19T19:18:50.028Z,21.63
2023-01-19T19:22:13.847Z,22.60
2023-01-19T19:25:39.273Z,23.40
2023-01-19T19:29:03.511Z,21.07
2023-01-19T19:32:29.799Z,22.50
2023-01-19T19:35:58.036Z,21.30
2023-01-19T19:39:21.778Z,23.37
2023-01-19T19:42:46.764Z,25.47
2023-01-19T19:46:13.289Z,25.03
2023-01-19T19:49:36.903Z,24.83
2023-01-19T19:53:01.712Z,24.97
2023-01-19T19:56:27.961Z,25.43
2023-01-19T19:59:55.167Z,25.00
2023-01-19T20:03:18.974Z,28.80
2023-01-19T20:06:44.678Z,27.37
2023-01-19T20:10:09.165Z,25.83
2023-01-19T20:13:33.002Z,23.20
2023-01-19T20:16:58.689Z,22.57
2023-01-19T20:20:22.345Z,37.27
2023-01-19T20:23:52.925Z,24.87
2023-01-19T20:27:17.744Z,25.00
2023-01-19T20:30:41.447Z,32.87
2023-01-19T20:34:08.335Z,27.13
2023-01-19T20:37:31.902Z,26.13
2023-01-19T20:40:55.787Z,25.10
2023-01-19T20:44:23.983Z,55.23
2023-01-19T20:47:48.468Z,24.93
2023-01-19T20:51:14.181Z,31.60
2023-01-19T20:54:39.655Z,25.00
2023-01-19T20:58:03.330Z,22.43
2023-01-19T21:01:27.473Z,22.97
2023-01-19T21:04:53.190Z,23.47
2023-01-19T21:08:25.646Z,23.40
2023-01-19T21:11:49.549Z,24.20
2023-01-19T21:15:13.537Z,25.27
2023-01-19T21:18:38.008Z,22.70
2023-01-19T21:22:02.362Z,24.97
2023-01-19T21:25:27.899Z,26.13
2023-01-19T21:28:51.528Z,24.57
2023-01-19T21:32:15.362Z,22.00
2023-01-19T21:35:40.203Z,24.47
2023-01-19T21:39:08.443Z,22.37
2023-01-19T21:42:38.513Z,26.37
2023-01-19T21:46:09.947Z,26.47
2023-01-19T21:49:33.579Z,25.40
2023-01-19T21:52:57.969Z,24.93
2023-01-19T21:56:22.428Z,23.20
2023-01-19T21:59:47.444Z,22.80
2023-01-19T22:03:11.094Z,23.93
2023-01-19T22:06:35.221Z,24.13
2023-01-19T22:09:58.759Z,21.10
2023-01-19T22:13:22.364Z,24.97
2023-01-19T22:16:47.288Z,24.57
2023-01-19T22:20:11.737Z,25.30
2023-01-19T22:23:35.260Z,23.80
2023-01-19T22:26:59.102Z,22.77
2023-01-19T22:30:25.730Z,20.50
2023-01-19T22:33:51.316Z,23.20
2023-01-19T22:37:15.073Z,20.90
2023-01-19T22:40:38.807Z,24.30
2023-01-19T22:44:04.151Z,23.67
2023-01-19T22:47:27.709Z,23.87
2023-01-19T22:50:56.813Z,22.73
2023-01-19T22:54:21.266Z,21.60
2023-01-19T22:57:44.886Z,23.70
2023-01-19T23:01:09.702Z,22.47
2023-01-19T23:04:34.203Z,24.10
2023-01-19T23:07:59.148Z,24.83
2023-01-19T23:11:25.373Z,26.10
2023-01-19T23:14:51.351Z,22.10
2023-01-19T23:18:16.438Z,23.93
2023-01-19T23:21:41.686Z,23.90
2023-01-19T23:25:12.389Z,23.00
2023-01-19T23:28:36.701Z,27.90
2023-01-19T23:32:00.354Z,23.97
2023-01-19T23:35:23.953Z,22.70
2023-01-19T23:38:49.867Z,26.27
2023-01-19T23:42:14.914Z,25.27
2023-01-19T23:45:38.734Z,26.90
2023-01-19T23:49:02.446Z,25.50
2023-01-19T23:52:26.112Z,25.00
2023-01-19T23:55:49.746Z,27.77
2023-01-19T23:59:16.860Z,25.77
